createdAt,value
2018-04-13T03:32:01.266Z,0.1
2018-04-13T03:34:01.280Z,0.2
2018-04-13T03:35:01.108Z,0.3
2018-04-13T03:37:01.099Z,0.4
2018-04-13T03:38:01.111Z,0.5
2018-04-13T03:39:01.270Z,0.7
2018-04-13T03:40:01.107Z,0.8
2018-04-13T03:41:01.104Z,1.0
2018-04-13T03:42:01.099Z,1.3
2018-04-13T03:43:01.098Z,1.6
2018-04-13T03:44:01.278Z,2.0
2018-04-13T03:45:01.103Z,2.5
2018-04-13T03:46:01.128Z,3.0
2018-04-13T03:47:01.100Z,3.6
2018-04-13T03:48:01.103Z,4.3
2018-04-13T03:49:01.248Z,5.2
2018-04-13T03:50:01.101Z,6.2
2018-04-13T03:51:01.126Z,7.4
2018-04-13T03:52:01.102Z,8.8
2018-04-13T03:53:01.102Z,10.4
2018-04-13T03:54:01.241Z,12.3
2018-04-13T03:55:01.105Z,14.3
2018-04-13T03:56:01.144Z,16.5
2018-04-13T03:57:01.106Z,18.8
2018-04-13T03:58:01.099Z,21.2
2018-04-13T03:59:01.442Z,23.7
2018-04-13T04:00:01.101Z,26.5
2018-04-13T04:01:01.136Z,29.5
2018-04-13T04:02:01.105Z,33.1
2018-04-13T04:03:01.105Z,37.2
2018-04-13T04:04:01.245Z,42.0
2018-04-13T04:05:01.107Z,47.3
2018-04-13T04:06:01.144Z,52.9
2018-04-13T04:07:01.100Z,58.7
2018-04-13T04:08:01.101Z,64.3
2018-04-13T04:09:01.245Z,69.9
2018-04-13T04:10:01.105Z,75.5
2018-04-13T04:11:01.158Z,81.6
2018-04-13T04:12:01.106Z,88.9
2018-04-13T04:13:01.100Z,98.1
2018-04-13T04:14:01.246Z,109.9
2018-04-13T04:15:01.102Z,124.5
2018-04-13T04:16:01.138Z,141.8
2018-04-13T04:17:01.105Z,161.1
2018-04-13T04:18:01.105Z,181.5
2018-04-13T04:19:01.247Z,202.3
2018-04-13T04:20:01.099Z,222.5
2018-04-13T04:21:01.133Z,242.1
2018-04-13T04:22:01.101Z,261.4
2018-04-13T04:23:01.101Z,282.5
2018-04-13T04:24:01.247Z,307.4
2018-04-13T04:25:01.071Z,336.2
2018-04-13T04:26:01.137Z,367.1
2018-04-13T04:27:01.099Z,398.6
2018-04-13T04:28:01.105Z,431.8
2018-04-13T04:29:01.251Z,467.5
2018-04-13T04:30:01.098Z,506.3
2018-04-13T04:31:01.138Z,548.4
2018-04-13T04:32:01.105Z,594.0
2018-04-13T04:33:01.100Z,644.3
2018-04-13T04:34:01.255Z,705.6
2018-04-13T04:35:01.107Z,784.5
2018-04-13T04:36:01.137Z,884.3
2018-04-13T04:37:01.104Z,1004.6
2018-04-13T04:38:01.106Z,1141.4
2018-04-13T04:39:01.254Z,1292.5
2018-04-13T04:40:01.106Z,1456.2
2018-04-13T04:41:01.136Z,1633.3
2018-04-13T04:42:01.104Z,1825.1
2018-04-13T04:43:01.105Z,2030.3
2018-04-13T04:44:01.247Z,2245.1
2018-04-13T04:45:01.106Z,2466.9
2018-04-13T04:46:01.142Z,2693.2
2018-04-13T04:47:01.101Z,2923.9
2018-04-13T04:48:01.098Z,3159.2
2018-04-13T04:49:01.251Z,3395.3
2018-04-13T04:50:01.109Z,3627.0
2018-04-13T04:51:01.146Z,3845.6
2018-04-13T04:52:01.117Z,4057.9
2018-04-13T04:53:01.109Z,4279.9
2018-04-13T04:55:01.238Z,4561.3
2018-04-13T04:56:01.090Z,4862.3
2018-04-13T04:57:01.127Z,5177.0
2018-04-13T04:58:01.094Z,5503.5
2018-04-13T04:59:01.099Z,5843.7
2018-04-13T05:00:01.406Z,6199.3
2018-04-13T05:01:01.091Z,6571.8
2018-04-13T05:02:01.133Z,6965.9
2018-04-13T05:03:01.096Z,7379.6
2018-04-13T05:04:01.090Z,7810.0
2018-04-13T05:05:01.237Z,8259.3
2018-04-13T05:06:01.095Z,8732.5
2018-04-13T05:07:01.130Z,9246.3
2018-04-13T05:08:01.095Z,9799.6
2018-04-13T05:09:01.096Z,10381.3
2018-04-13T05:10:01.242Z,10943.9
2018-04-13T05:11:01.101Z,11526.3
2018-04-13T05:12:01.176Z,12132.9
2018-04-13T05:13:01.098Z,12752.7
2018-04-13T05:14:01.094Z,13370.1
2018-04-13T05:15:01.251Z,13959.9
2018-04-13T05:16:01.100Z,14486.5
2018-04-13T05:17:01.129Z,14917.8
2018-04-13T05:18:01.095Z,15244.1
2018-04-13T05:19:01.096Z,15491.4
2018-04-13T05:20:01.243Z,15707.7
2018-04-13T05:21:01.099Z,15925.7
2018-04-13T05:22:01.144Z,16136.8
2018-04-13T05:23:01.099Z,16350.5
2018-04-13T05:24:01.097Z,16536.3
2018-04-13T05:25:01.238Z,16696.8
2018-04-13T05:26:01.101Z,16847.1
2018-04-13T05:27:01.129Z,16964.2
2018-04-13T05:28:01.104Z,17055.3
2018-04-13T05:29:01.106Z,17121.1
2018-04-13T05:30:01.250Z,17174.6
2018-04-13T05:31:01.115Z,17235.1
2018-04-13T05:32:01.138Z,17311.9
2018-04-13T05:33:01.101Z,17391.6
2018-04-13T05:34:01.071Z,17428.9
2018-04-13T05:35:01.315Z,17376.5
2018-04-13T05:36:01.075Z,17262.3
2018-04-13T05:37:01.133Z,17161.5
2018-04-13T05:38:01.099Z,17099.9
2018-04-13T05:39:01.073Z,17120.0
2018-04-13T05:40:01.244Z,17160.2
2018-04-13T05:41:01.144Z,17158.1
2018-04-13T05:42:01.136Z,17163.2
2018-04-13T05:43:01.107Z,17172.5
2018-04-13T05:44:01.108Z,17180.5
2018-04-13T05:45:01.265Z,17200.4
2018-04-13T05:46:01.157Z,17227.8
2018-04-13T05:47:01.141Z,17241.9
2018-04-13T05:48:01.106Z,17275.5
2018-04-13T05:49:01.104Z,17276.7
2018-04-13T05:50:01.256Z,17263.5
2018-04-13T05:51:01.109Z,17270.8
2018-04-13T05:52:01.144Z,17341.3
2018-04-13T05:53:01.107Z,17533.6
2018-04-13T05:54:01.109Z,17861.1
2018-04-13T05:55:01.246Z,18345.1
2018-04-13T05:56:01.108Z,18914.8
2018-04-13T05:57:01.130Z,19543.0
2018-04-13T05:58:01.106Z,20080.3
2018-04-13T05:59:01.099Z,20420.3
2018-04-13T06:00:01.249Z,20504.0
2018-04-13T06:01:01.069Z,20491.5
2018-04-13T06:02:01.128Z,20564.3
2018-04-13T06:03:01.100Z,20713.1
2018-04-13T06:04:01.101Z,20950.1
2018-04-13T06:05:01.248Z,21213.7
2018-04-13T06:06:01.106Z,21374.1
2018-04-13T06:07:01.134Z,21327.9
2018-04-13T06:08:01.103Z,21013.6
2018-04-13T06:09:01.104Z,20440.9
2018-04-13T06:10:01.255Z,19685.5
2018-04-13T06:11:01.107Z,18919.6
2018-04-13T06:12:01.148Z,18194.1
2018-04-13T06:13:01.110Z,17795.9
2018-04-13T06:14:01.106Z,18003.9
2018-04-13T06:15:01.242Z,18886.1
2018-04-13T06:16:01.106Z,20235.5
2018-04-13T06:17:01.144Z,21773.1
2018-04-13T06:18:01.110Z,23384.3
2018-04-13T06:19:01.106Z,25005.3
2018-04-13T06:20:01.253Z,26550.6
2018-04-13T06:21:01.107Z,27941.7
2018-04-13T06:22:01.144Z,29034.9
2018-04-13T06:23:01.115Z,29875.7
2018-04-13T06:24:01.103Z,30497.5
2018-04-13T06:25:01.250Z,30853.1
2018-04-13T06:26:01.107Z,30989.5
2018-04-13T06:27:01.146Z,30945.3
2018-04-13T06:28:01.107Z,30597.1
2018-04-13T06:29:01.103Z,29788.1
2018-04-13T06:30:01.262Z,28549.3
2018-04-13T06:31:01.106Z,27048.2
2018-04-13T06:32:01.143Z,25403.2
2018-04-13T06:34:01.096Z,23847.1
2018-04-13T06:35:01.238Z,22420.1
2018-04-13T06:36:01.094Z,21266.9
2018-04-13T06:37:01.132Z,20490.2
2018-04-13T06:38:01.094Z,20178.7
2018-04-13T06:39:01.095Z,20300.1
2018-04-13T06:40:01.245Z,20836.5
2018-04-13T06:41:01.092Z,21812.9
2018-04-13T06:42:01.132Z,22946.5
2018-04-13T06:43:01.098Z,24671.1
2018-04-13T06:44:01.100Z,26908.6
2018-04-13T06:45:01.267Z,29616.5
2018-04-13T06:46:01.112Z,32739.5
2018-04-13T06:47:01.131Z,35993.1
2018-04-13T06:48:01.113Z,39191.0
2018-04-13T06:49:01.100Z,42203.2
2018-04-13T06:50:01.291Z,45113.7
2018-04-13T06:51:01.101Z,47903.2
2018-04-13T06:52:01.136Z,50575.9
2018-04-13T06:53:01.118Z,53170.2
2018-04-13T06:54:01.107Z,55634.2
2018-04-13T06:55:01.249Z,57915.3
2018-04-13T06:56:01.105Z,59995.5
2018-04-13T06:57:01.134Z,62058.7
2018-04-13T06:58:01.101Z,63584.8
2018-04-13T06:59:01.101Z,64645.3
2018-04-13T07:00:01.251Z,65285.9
2018-04-13T07:01:01.106Z,65520.7
2018-04-13T07:02:01.124Z,65535.0
2018-04-13T07:15:01.108Z,65535.0
2018-04-13T07:30:01.481Z,65535.0
2018-04-13T07:45:01.450Z,65535.0
2018-04-13T08:00:01.104Z,65535.0
2018-04-13T08:15:01.282Z,65535.0
2018-04-13T08:30:01.426Z,65535.0
2018-04-13T08:45:01.121Z,65535.0
2018-04-13T09:00:01.403Z,65535.0
2018-04-13T09:15:01.115Z,65535.0
2018-04-13T09:30:01.106Z,65535.0
2018-04-13T09:45:01.312Z,65535.0
2018-04-13T10:00:01.113Z,65535.0
2018-04-13T10:15:01.265Z,65535.0
2018-04-13T10:30:01.126Z,65535.0
2018-04-13T10:45:01.394Z,65535.0
2018-04-13T11:00:01.096Z,65535.0
2018-04-13T11:15:01.097Z,65535.0
2018-04-13T11:30:01.403Z,65535.0
2018-04-13T11:43:01.132Z,65330.1
2018-04-13T11:44:01.242Z,65024.6
2018-04-13T11:45:01.098Z,64947.7
2018-04-13T11:58:01.128Z,65152.6
2018-04-13T11:59:01.243Z,65458.1
2018-04-13T12:00:01.105Z,65535.0
2018-04-13T12:15:01.098Z,65535.0
2018-04-13T12:30:01.099Z,65535.0
2018-04-13T12:45:01.096Z,65535.0
2018-04-13T12:46:01.099Z,65427.3
2018-04-13T12:47:01.107Z,64645.8
2018-04-13T12:48:01.095Z,63440.5
2018-04-13T12:49:01.315Z,62229.5
2018-04-13T12:50:01.101Z,61197.3
2018-04-13T12:51:01.106Z,60326.3
2018-04-13T12:52:01.100Z,59590.4
2018-04-13T12:53:01.096Z,58835.9
2018-04-13T12:54:01.283Z,57920.9
2018-04-13T12:55:01.357Z,56899.5
2018-04-13T12:56:01.174Z,55865.2
2018-04-13T12:57:01.111Z,54982.3
2018-04-13T12:58:01.070Z,54252.3
2018-04-13T12:59:01.271Z,53449.0
2018-04-13T13:00:01.099Z,52286.9
2018-04-13T13:01:01.137Z,51035.7
2018-04-13T13:02:01.097Z,50500.0
2018-04-13T13:03:01.125Z,50628.7
2018-04-13T13:04:01.316Z,51110.7
2018-04-13T13:05:01.096Z,51487.1
2018-04-13T13:06:01.095Z,51491.7
2018-04-13T13:07:01.104Z,51172.7
2018-04-13T13:08:01.126Z,50977.8
2018-04-13T13:09:01.245Z,51097.7
2018-04-13T13:10:01.102Z,51285.8
2018-04-13T13:11:01.103Z,51274.6
2018-04-13T13:12:01.108Z,50958.7
2018-04-13T13:13:01.123Z,50560.5
2018-04-13T13:14:01.242Z,50396.1
2018-04-13T13:15:01.156Z,50848.0
2018-04-13T13:16:01.099Z,51737.3
2018-04-13T13:17:01.101Z,52686.5
2018-04-13T13:18:01.130Z,53616.8
2018-04-13T13:19:01.239Z,54345.7
2018-04-13T13:20:01.073Z,55001.5
2018-04-13T13:21:01.099Z,55868.0
2018-04-13T13:22:01.101Z,56922.8
2018-04-13T13:23:01.126Z,57872.3
2018-04-13T13:24:01.239Z,58667.3
2018-04-13T13:25:01.072Z,59500.6
2018-04-13T13:26:01.072Z,60546.1
2018-04-13T13:27:01.102Z,61744.9
2018-04-13T13:28:01.132Z,62873.1
2018-04-13T13:29:01.247Z,63840.8
2018-04-13T13:30:01.105Z,64551.0
2018-04-13T13:31:01.110Z,65020.6
2018-04-13T13:32:01.100Z,65388.6
2018-04-13T13:33:01.136Z,65535.0
2018-04-13T13:45:01.107Z,65535.0
2018-04-13T14:00:02.423Z,65535.0
2018-04-13T14:15:01.268Z,65535.0
2018-04-13T14:30:01.354Z,65535.0
2018-04-13T14:45:01.394Z,65535.0
2018-04-13T15:00:01.403Z,65535.0
2018-04-13T15:15:01.284Z,65535.0
2018-04-13T15:30:01.404Z,65535.0
2018-04-13T15:34:01.134Z,65348.4
2018-04-13T15:35:01.263Z,64973.1
2018-04-13T15:36:01.110Z,64466.7
2018-04-13T15:37:01.146Z,63912.7
2018-04-13T15:38:01.119Z,63271.1
2018-04-13T15:39:01.117Z,62353.1
2018-04-13T15:41:01.093Z,60845.0
2018-04-13T15:42:01.094Z,59117.9
2018-04-13T15:43:01.120Z,57128.4
2018-04-13T15:44:01.099Z,54964.7
2018-04-13T15:45:01.348Z,52813.1
2018-04-13T15:46:01.094Z,50748.7
2018-04-13T15:47:01.099Z,48644.1
2018-04-13T15:48:01.118Z,46361.9
2018-04-13T15:49:01.099Z,43929.2
2018-04-13T15:50:01.273Z,41665.8
2018-04-13T15:51:01.092Z,39683.9
2018-04-13T15:52:01.093Z,37973.7
2018-04-13T15:53:01.129Z,36567.9
2018-04-13T15:54:01.113Z,35705.1
2018-04-13T15:55:01.284Z,35690.0
2018-04-13T15:56:01.097Z,36802.2
2018-04-13T15:57:01.096Z,38529.3
2018-04-13T15:58:01.100Z,40518.8
2018-04-13T15:59:01.101Z,42682.5
2018-04-13T16:00:01.342Z,44834.1
2018-04-13T16:01:01.097Z,46898.5
2018-04-13T16:02:01.101Z,49003.1
2018-04-13T16:03:01.099Z,51285.3
2018-04-13T16:04:01.096Z,53543.7
2018-04-13T16:05:01.280Z,55682.0
2018-04-13T16:06:01.100Z,57647.7
2018-04-13T16:07:01.114Z,59427.4
2018-04-13T16:08:01.124Z,60954.6
2018-04-13T16:09:01.100Z,62001.9
2018-04-13T16:10:01.256Z,62500.7
2018-04-13T16:11:01.102Z,62624.3
2018-04-13T16:14:01.138Z,62374.5
2018-04-13T16:15:01.321Z,61663.5
2018-04-13T16:16:01.071Z,60670.9
2018-04-13T16:17:01.100Z,59621.1
2018-04-13T16:18:01.101Z,58630.3
2018-04-13T16:19:01.138Z,57853.9
2018-04-13T16:20:01.245Z,57006.7
2018-04-13T16:21:01.101Z,55894.6
2018-04-13T16:22:01.106Z,54397.1
2018-04-13T16:23:01.099Z,52570.5
2018-04-13T16:24:01.133Z,50592.1
2018-04-13T16:25:01.250Z,48603.1
2018-04-13T16:26:01.108Z,46485.1
2018-04-13T16:27:01.102Z,44090.7
2018-04-13T16:28:01.129Z,41665.5
2018-04-13T16:29:01.104Z,39483.5
2018-04-13T16:30:01.253Z,37810.5
2018-04-13T16:31:01.109Z,36523.3
2018-04-13T16:32:01.115Z,35382.9
2018-04-13T16:33:01.137Z,34246.2
2018-04-13T16:34:01.102Z,33230.3
2018-04-13T16:35:01.312Z,32601.9
2018-04-13T16:36:01.104Z,32444.8
2018-04-13T16:37:01.105Z,32793.8
2018-04-13T16:38:01.126Z,33505.4
2018-04-13T16:39:01.168Z,34461.3
2018-04-13T16:40:01.251Z,35459.4
2018-04-13T16:41:01.106Z,36276.4
2018-04-13T16:42:01.079Z,36897.3
2018-04-13T16:43:01.107Z,37450.7
2018-04-13T16:44:01.133Z,38006.1
2018-04-13T16:45:01.276Z,38562.1
2018-04-13T16:46:01.107Z,39033.4
2018-04-13T16:47:01.115Z,39454.4
2018-04-13T16:48:01.106Z,39944.9
2018-04-13T16:49:01.146Z,40552.3
2018-04-13T16:50:01.257Z,41297.4
2018-04-13T16:51:01.107Z,42025.1
2018-04-13T16:52:01.110Z,42534.5
2018-04-13T16:53:01.109Z,42659.3
2018-04-13T16:54:01.145Z,42429.2
2018-04-13T16:55:01.249Z,41999.1
2018-04-13T16:56:01.140Z,41627.0
2018-04-13T16:57:01.108Z,41296.9
2018-04-13T16:58:01.109Z,40923.6
2018-04-13T16:59:01.145Z,40378.8
2018-04-13T17:00:01.257Z,39605.1
2018-04-13T17:01:01.111Z,38726.1
2018-04-13T17:02:01.110Z,37784.4
2018-04-13T17:03:01.116Z,36573.9
2018-04-13T17:05:01.264Z,34492.6
2018-04-13T17:06:01.098Z,32068.4
2018-04-13T17:07:01.099Z,29647.7
2018-04-13T17:08:01.092Z,27377.9
2018-04-13T17:09:01.099Z,25342.3
2018-04-13T17:10:01.335Z,23477.9
2018-04-13T17:11:01.092Z,21671.9
2018-04-13T17:12:01.102Z,19886.8
2018-04-13T17:13:01.096Z,18198.8
2018-04-13T17:14:01.106Z,16610.4
2018-04-13T17:15:01.269Z,15176.5
2018-04-13T17:16:01.098Z,13908.2
2018-04-13T17:17:01.103Z,12714.9
2018-04-13T17:18:01.092Z,11536.7
2018-04-13T17:19:01.090Z,10491.3
2018-04-13T17:20:01.273Z,10046.7
2018-04-13T17:21:01.097Z,9644.6
2018-04-13T17:22:01.093Z,9154.3
2018-04-13T17:23:01.126Z,8678.6
2018-04-13T17:24:01.105Z,8339.3
2018-04-13T17:25:01.237Z,8147.3
2018-04-13T17:26:01.105Z,8080.6
2018-04-13T17:27:01.100Z,8104.9
2018-04-13T17:28:01.128Z,8183.2
2018-04-13T17:29:01.101Z,8278.6
2018-04-13T17:30:01.242Z,8367.5
2018-04-13T17:31:01.129Z,8452.5
2018-04-13T17:32:01.097Z,8536.9
2018-04-13T17:33:01.097Z,8626.4
2018-04-13T17:34:01.101Z,8719.5
2018-04-13T17:35:01.242Z,8790.9
2018-04-13T17:36:01.128Z,8817.7
2018-04-13T17:37:01.110Z,8796.3
2018-04-13T17:38:01.103Z,8740.4
2018-04-13T17:39:01.107Z,8637.7
2018-04-13T17:40:01.249Z,8469.5
2018-04-13T17:41:01.130Z,8235.5
2018-04-13T17:42:01.106Z,7960.5
2018-04-13T17:43:01.110Z,7674.8
2018-04-13T17:44:01.106Z,7391.7
2018-04-13T17:45:01.278Z,7117.3
2018-04-13T17:46:01.131Z,6845.5
2018-04-13T17:47:01.170Z,6577.2
2018-04-13T17:48:01.131Z,6302.3
2018-04-13T17:49:01.108Z,6003.5
2018-04-13T17:50:01.267Z,5685.7
2018-04-13T17:51:01.114Z,5366.6
2018-04-13T17:52:01.119Z,5050.7
2018-04-13T17:54:02.148Z,4716.0
2018-04-13T17:55:01.237Z,4388.9
2018-04-13T17:56:01.090Z,4083.4
2018-04-13T17:57:01.060Z,3798.0
2018-04-13T17:58:01.056Z,3526.5
2018-04-13T17:59:01.111Z,3266.7
2018-04-13T18:00:01.361Z,3021.7
2018-04-13T18:01:01.091Z,2791.7
2018-04-13T18:02:01.060Z,2579.3
2018-04-13T18:03:01.098Z,2374.7
2018-04-13T18:04:01.126Z,2174.3
2018-04-13T18:05:01.237Z,1987.7
2018-04-13T18:06:01.061Z,1821.9
2018-04-13T18:07:01.135Z,1673.5
2018-04-13T18:08:01.099Z,1538.0
2018-04-13T18:09:01.092Z,1430.4
2018-04-13T18:10:01.248Z,1338.9
2018-04-13T18:11:01.098Z,1261.8
2018-04-13T18:12:01.137Z,1192.6
2018-04-13T18:13:01.166Z,1126.3
2018-04-13T18:14:01.101Z,1063.9
2018-04-13T18:15:01.237Z,1011.0
2018-04-13T18:16:01.098Z,967.6
2018-04-13T18:17:01.132Z,929.1
2018-04-13T18:18:01.171Z,894.5
2018-04-13T18:19:01.101Z,864.6
2018-04-13T18:20:01.245Z,842.1
2018-04-13T18:21:01.170Z,829.0
2018-04-13T18:22:01.121Z,825.2
2018-04-13T18:23:01.104Z,826.8
2018-04-13T18:24:01.101Z,828.9
2018-04-13T18:25:01.281Z,826.5
2018-04-13T18:26:01.100Z,816.5
2018-04-13T18:27:01.102Z,801.7
2018-04-13T18:28:01.139Z,786.6
2018-04-13T18:29:01.070Z,771.3
2018-04-13T18:30:01.253Z,751.3
2018-04-13T18:31:01.106Z,722.4
2018-04-13T18:32:01.102Z,684.2
2018-04-13T18:33:01.132Z,639.6
2018-04-13T18:34:01.103Z,593.2
2018-04-13T18:35:01.321Z,547.8
2018-04-13T18:36:01.104Z,503.8
2018-04-13T18:37:01.106Z,460.9
2018-04-13T18:38:01.136Z,419.3
2018-04-13T18:39:01.110Z,379.1
2018-04-13T18:40:01.301Z,341.5
2018-04-13T18:41:01.107Z,307.8
2018-04-13T18:42:01.109Z,277.1
2018-04-13T18:43:01.107Z,248.3
2018-04-13T18:44:01.114Z,220.7
2018-04-13T18:45:01.312Z,195.3
2018-04-13T18:46:01.107Z,172.9
2018-04-13T18:47:01.115Z,153.2
2018-04-13T18:48:01.112Z,135.6
2018-04-13T18:49:01.135Z,120.0
2018-04-13T18:51:01.124Z,105.6
2018-04-13T18:52:01.092Z,92.4
2018-04-13T18:53:01.092Z,80.2
2018-04-13T18:54:01.102Z,68.7
2018-04-13T18:55:01.314Z,58.1
2018-04-13T18:56:01.126Z,48.6
2018-04-13T18:57:01.099Z,40.5
2018-04-13T18:58:01.192Z,33.7
2018-04-13T18:59:01.095Z,27.9
2018-04-13T19:00:01.276Z,23.1
2018-04-13T19:01:01.102Z,18.9
2018-04-13T19:02:01.131Z,15.3
2018-04-13T19:03:01.097Z,12.0
2018-04-13T19:04:01.069Z,9.3
2018-04-13T19:05:01.249Z,6.9
2018-04-13T19:06:01.109Z,5.4
2018-04-13T19:07:01.141Z,4.3
2018-04-13T19:08:01.102Z,3.4
2018-04-13T19:09:01.104Z,2.7
2018-04-13T19:10:01.247Z,2.3
2018-04-13T19:11:01.107Z,1.9
2018-04-13T19:12:01.129Z,1.6
2018-04-13T19:13:01.101Z,1.4
2018-04-13T19:14:01.107Z,1.3
2018-04-13T19:15:01.307Z,1.1
2018-04-13T19:16:01.124Z,0.9
2018-04-13T19:17:01.109Z,0.8
2018-04-13T19:18:01.139Z,0.7
2018-04-13T19:20:01.313Z,0.6
2018-04-13T19:21:01.105Z,0.5
2018-04-13T19:23:01.134Z,0.4
2018-04-13T19:24:01.106Z,0.3
2018-04-13T19:26:01.104Z,0.2
2018-04-13T19:27:01.104Z,0.1
